Time;durP1;ratioP1;P1;durP2;ratioP2;P2;SDS_P1;SDS_P2;PMS_P1;PMS_P2;Temp;Humidity;BMP_temperature;BMP_pressure;BME280_temperature;BME280_humidity;BME280_pressure;Samples;Min_cycle;Max_cycle;Signal;HPM_P1;HPM_P2
2023/02/08 00:01:25;;;;;;;19.90;13.32;;;3.20;56.90;;;;;;4943354;29;20499;-80
2023/02/08 00:03:51;;;;;;;19.67;13.63;;;3.10;56.70;;;;;;4949012;28;20042;-84
2023/02/08 00:06:17;;;;;;;20.30;13.45;;;3.10;56.80;;;;;;4934732;28;20115;-84
2023/02/08 00:08:46;;;;;;;20.48;13.77;;;3.10;56.80;;;;;;4947275;28;20065;-82
2023/02/08 00:11:12;;;;;;;20.27;13.45;;;3.10;56.90;;;;;;4934459;29;20075;-84
2023/02/08 00:13:40;;;;;;;17.45;12.68;;;3.10;56.90;;;;;;4946862;29;20098;-82
2023/02/08 00:16:07;;;;;;;17.08;12.05;;;3.00;56.80;;;;;;4923987;29;20508;-86
2023/02/08 00:18:33;;;;;;;19.13;13.75;;;3.00;56.80;;;;;;4936356;29;20043;-89
2023/02/08 00:20:58;;;;;;;18.00;13.40;;;3.00;56.80;;;;;;4930616;29;20032;-95
2023/02/08 00:23:26;;;;;;;15.20;13.23;;;3.00;56.90;;;;;;4957490;29;20035;-94
2023/02/08 00:25:52;;;;;;;20.60;12.02;;;2.90;56.70;;;;;;4952890;28;20043;-93
2023/02/08 00:28:18;;;;;;;17.75;12.57;;;2.90;56.70;;;;;;4941541;29;20047;-92
2023/02/08 00:30:45;;;;;;;19.25;14.18;;;2.80;56.60;;;;;;4938157;29;20122;-89
2023/02/08 00:33:11;;;;;;;20.58;13.25;;;2.90;56.80;;;;;;4938106;29;20396;-90
2023/02/08 00:35:39;;;;;;;16.98;12.90;;;2.80;56.70;;;;;;4927982;29;20391;-80
2023/02/08 00:38:05;;;;;;;16.05;13.15;;;2.80;56.70;;;;;;4919639;29;20032;-85
2023/02/08 00:40:31;;;;;;;20.30;12.38;;;2.80;56.70;;;;;;4932722;29;20591;-85
2023/02/08 00:42:58;;;;;;;19.83;13.77;;;2.80;56.80;;;;;;4925274;29;20277;-85
2023/02/08 00:45:24;;;;;;;15.07;12.55;;;2.80;56.70;;;;;;4950351;28;20050;-85
2023/02/08 00:47:50;;;;;;;19.20;12.55;;;2.70;56.60;;;;;;4934439;29;20441;-85
2023/02/08 00:50:16;;;;;;;19.15;13.52;;;2.70;56.60;;;;;;4930079;29;20054;-85
2023/02/08 00:52:42;;;;;;;18.52;12.68;;;2.70;56.60;;;;;;4930196;29;20035;-85
2023/02/08 00:55:10;;;;;;;19.83;13.73;;;2.70;56.60;;;;;;4943147;29;20097;-81
2023/02/08 00:57:36;;;;;;;19.98;13.07;;;2.70;56.70;;;;;;4931219;29;20044;-82
2023/02/08 01:00:03;;;;;;;18.25;13.30;;;2.60;56.50;;;;;;4919068;29;20046;-82
2023/02/08 01:02:29;;;;;;;17.77;12.43;;;2.60;56.50;;;;;;4924988;29;20035;-83
2023/02/08 01:04:55;;;;;;;18.42;13.75;;;2.60;56.60;;;;;;4918722;29;20047;-81
2023/02/08 01:07:21;;;;;;;18.08;13.02;;;2.60;56.60;;;;;;4922053;29;20036;-82
2023/02/08 01:09:47;;;;;;;19.33;13.38;;;2.60;56.60;;;;;;4926523;29;20036;-81
2023/02/08 01:12:13;;;;;;;20.13;12.55;;;2.50;56.40;;;;;;4926964;29;20030;-87
2023/02/08 01:14:39;;;;;;;17.73;12.15;;;2.50;56.40;;;;;;4930983;29;20475;-85
2023/02/08 01:17:06;;;;;;;20.23;12.88;;;2.50;56.50;;;;;;4930567;29;20039;-87
2023/02/08 01:19:32;;;;;;;20.70;12.15;;;2.50;56.50;;;;;;4928567;29;20105;-87
2023/02/08 01:21:58;;;;;;;24.75;14.00;;;2.40;56.40;;;;;;4928398;29;20395;-85
2023/02/08 01:24:24;;;;;;;20.05;13.30;;;2.40;56.40;;;;;;4927643;29;20046;-87
2023/02/08 01:26:51;;;;;;;18.17;13.95;;;2.40;56.40;;;;;;4927326;29;20039;-90
2023/02/08 01:29:17;;;;;;;18.70;12.40;;;2.40;56.40;;;;;;4930479;29;20052;-90
2023/02/08 01:31:44;;;;;;;15.75;12.60;;;2.30;56.20;;;;;;4928561;29;20572;-85
2023/02/08 01:34:11;;;;;;;19.95;12.30;;;2.30;56.30;;;;;;4928934;29;20055;-83
2023/02/08 01:36:38;;;;;;;16.77;12.68;;;2.30;56.30;;;;;;4922651;29;20111;-84
2023/02/08 01:39:06;;;;;;;18.42;12.98;;;2.30;56.30;;;;;;4926632;29;20126;-85
2023/02/08 01:41:35;;;;;;;17.67;12.75;;;2.30;56.30;;;;;;4928535;29;20032;-85
2023/02/08 01:44:06;;;;;;;18.25;12.18;;;2.30;56.30;;;;;;4928437;29;20578;-86
2023/02/08 01:46:35;;;;;;;20.88;13.48;;;2.20;56.10;;;;;;4927194;29;20040;-84
2023/02/08 01:49:11;;;;;;;16.90;12.48;;;2.20;56.10;;;;;;4939033;29;20039;-88
2023/02/08 01:51:42;;;;;;;21.33;12.90;;;2.20;56.20;;;;;;4930393;28;20027;-85
2023/02/08 01:54:11;;;;;;;21.00;13.77;;;2.20;56.20;;;;;;4938665;29;20038;-86
2023/02/08 01:56:44;;;;;;;17.33;12.43;;;2.10;56.00;;;;;;4939716;28;20492;-87
2023/02/08 01:59:22;;;;;;;18.52;12.48;;;2.10;56.10;;;;;;4919999;29;20028;-81
2023/02/08 02:01:50;;;;;;;17.88;13.77;;;2.10;56.10;;;;;;4924674;29;20122;-80
2023/02/08 02:04:17;;;;;;;20.65;13.07;;;2.10;56.10;;;;;;4926229;29;20043;-81
2023/02/08 02:06:47;;;;;;;20.98;12.85;;;2.10;56.10;;;;;;4927133;29;20106;-82
2023/02/08 02:09:24;;;;;;;17.63;13.48;;;2.10;56.10;;;;;;4925568;29;20055;-82
2023/02/08 02:11:53;;;;;;;21.25;13.63;;;2.00;56.00;;;;;;4925651;29;20126;-85
2023/02/08 02:14:20;;;;;;;17.50;12.95;;;2.00;56.00;;;;;;4927115;29;20203;-82
2023/02/08 02:16:46;;;;;;;21.05;13.73;;;2.00;56.00;;;;;;4923985;29;20060;-82
2023/02/08 02:19:41;;;;;;;20.10;14.05;;;1.90;55.80;;;;;;4923469;29;20032;-82
2023/02/08 02:22:44;;;;;;;24.40;13.82;;;1.90;55.90;;;;;;4926405;29;20071;-80
2023/02/08 02:25:19;;;;;;;;;;;1.90;55.90;;;;;;4925123;29;20031;-86
2023/02/08 02:28:04;;;;;;;18.88;12.68;;;1.90;55.90;;;;;;4927894;29;19958;-85
2023/02/08 02:31:05;;;;;;;21.88;14.43;;;1.90;55.90;;;;;;4924052;29;20139;-85
2023/02/08 02:33:41;;;;;;;22.83;15.20;;;1.90;55.90;;;;;;4928242;29;20042;-86
2023/02/08 02:36:10;;;;;;;21.15;14.20;;;1.80;55.70;;;;;;4918501;29;20043;-88
2023/02/08 02:38:44;;;;;;;24.95;16.05;;;1.80;55.70;;;;;;4924037;29;20155;-87
2023/02/08 02:44:35;;;;;;;23.20;14.98;;;1.80;55.80;;;;;;4921268;29;20043;-87
2023/02/08 02:47:13;;;;;;;24.05;15.38;;;1.70;55.60;;;;;;4926605;29;20094;-87
2023/02/08 02:49:52;;;;;;;25.02;14.98;;;1.70;55.60;;;;;;4928072;29;20040;-86
2023/02/08 02:52:50;;;;;;;20.90;14.45;;;1.70;55.70;;;;;;4933263;29;20034;-90
2023/02/08 02:55:21;;;;;;;19.35;14.15;;;1.70;55.70;;;;;;4917794;29;20543;-85
2023/02/08 02:57:50;;;;;;;25.85;15.77;;;1.70;55.70;;;;;;4926054;29;20075;-87
2023/02/08 03:00:25;;;;;;;21.63;14.85;;;1.70;55.70;;;;;;4921412;29;20071;-85
2023/02/08 03:02:52;;;;;;;27.02;15.10;;;1.60;55.60;;;;;;4925224;29;20119;-82
2023/02/08 03:05:18;;;;;;;25.55;17.02;;;1.60;55.60;;;;;;4936954;29;20042;-85
2023/02/08 03:08:02;;;;;;;27.85;16.05;;;1.60;55.60;;;;;;4933146;29;20028;-87
2023/02/08 03:10:47;;;;;;;20.80;14.55;;;1.60;55.70;;;;;;4936407;29;20527;-85
2023/02/08 03:13:44;;;;;;;23.52;14.55;;;1.50;55.50;;;;;;4912481;29;20056;-87
2023/02/08 03:16:30;;;;;;;21.27;15.52;;;1.60;55.70;;;;;;4914532;29;20451;-84
2023/02/08 03:19:32;;;;;;;19.90;14.07;;;1.50;55.50;;;;;;4931270;29;20047;-83
2023/02/08 03:22:20;;;;;;;20.63;14.25;;;1.50;55.50;;;;;;4924794;29;20517;-83
2023/02/08 03:24:52;;;;;;;24.55;14.32;;;1.50;55.50;;;;;;4919020;29;20413;-83
2023/02/08 03:27:26;;;;;;;18.33;12.48;;;1.50;55.50;;;;;;4926689;29;20119;-83
2023/02/08 03:30:14;;;;;;;19.27;13.60;;;1.40;55.40;;;;;;4926519;29;20432;-83
2023/02/08 03:32:53;;;;;;;18.98;13.32;;;1.40;55.40;;;;;;4918003;29;20094;-83
2023/02/08 03:35:26;;;;;;;17.95;12.68;;;1.40;55.40;;;;;;4926549;29;20487;-89
2023/02/08 03:38:12;;;;;;;19.17;13.05;;;1.40;55.50;;;;;;4921574;29;20036;-88
2023/02/08 03:40:42;;;;;;;22.52;12.98;;;1.40;55.50;;;;;;4927853;29;20411;-85
2023/02/08 03:43:17;;;;;;;21.50;13.60;;;1.40;55.50;;;;;;4927072;29;20039;-85
2023/02/08 03:45:51;;;;;;;18.55;13.40;;;1.30;55.30;;;;;;4917359;29;20661;-86
2023/02/08 03:48:20;;;;;;;24.63;15.40;;;1.40;55.50;;;;;;4929152;29;20032;-85
2023/02/08 03:50:49;;;;;;;19.50;13.70;;;1.30;55.40;;;;;;4927059;29;20106;-82
2023/02/08 03:53:20;;;;;;;23.80;14.70;;;1.30;55.40;;;;;;4929137;29;20140;-80
2023/02/08 03:55:50;;;;;;;21.88;14.05;;;1.30;55.40;;;;;;4922971;29;20058;-82
2023/02/08 03:58:24;;;;;;;22.98;15.25;;;1.30;55.40;;;;;;4926937;29;20600;-84
2023/02/08 04:01:21;;;;;;;19.98;14.52;;;1.30;55.40;;;;;;4923163;29;20419;-86
2023/02/08 04:03:52;;;;;;;22.15;16.27;;;1.30;55.50;;;;;;4919883;29;20036;-83
2023/02/08 04:06:19;;;;;;;26.25;15.32;;;1.30;55.50;;;;;;4926924;29;20118;-83
2023/02/08 04:08:45;;;;;;;26.10;17.13;;;1.20;55.30;;;;;;4929953;29;20659;-85
2023/02/08 04:11:11;;;;;;;23.27;16.50;;;1.20;55.30;;;;;;4932573;29;20032;-84
2023/02/08 04:13:37;;;;;;;24.25;16.98;;;1.20;55.30;;;;;;4934066;29;20031;-85
2023/02/08 04:16:03;;;;;;;26.77;17.10;;;1.20;55.30;;;;;;4930969;29;20559;-85
2023/02/08 04:18:29;;;;;;;25.75;18.13;;;1.20;55.90;;;;;;4927574;29;20038;-88
2023/02/08 04:20:55;;;;;;;23.65;16.98;;;1.20;55.40;;;;;;4931681;29;20043;-89
2023/02/08 04:23:21;;;;;;;21.92;18.13;;;1.20;55.50;;;;;;4932650;29;20476;-82
2023/02/08 04:25:47;;;;;;;25.23;18.83;;;1.20;55.50;;;;;;4921377;29;20145;-84
2023/02/08 04:28:13;;;;;;;25.67;18.67;;;1.10;55.30;;;;;;4933118;29;20036;-86
2023/02/08 04:30:39;;;;;;;26.77;19.50;;;1.20;55.50;;;;;;4929790;29;20051;-90
2023/02/08 04:33:06;;;;;;;26.92;20.65;;;1.10;55.30;;;;;;4932729;29;20079;-89
2023/02/08 04:35:32;;;;;;;29.58;20.50;;;1.10;55.30;;;;;;4934227;29;20491;-90
2023/02/08 04:37:58;;;;;;;30.05;21.90;;;1.10;55.30;;;;;;4928187;29;20062;-92
2023/02/08 04:40:24;;;;;;;29.13;21.48;;;1.10;55.30;;;;;;4924409;29;20134;-88
2023/02/08 04:42:50;;;;;;;33.47;22.95;;;1.10;55.30;;;;;;4931887;29;20060;-89
2023/02/08 04:45:16;;;;;;;31.55;22.38;;;1.10;55.30;;;;;;4934724;29;20039;-91
2023/02/08 04:47:42;;;;;;;30.40;23.23;;;1.10;55.30;;;;;;4937204;29;20642;-88
2023/02/08 04:50:08;;;;;;;32.05;23.77;;;1.10;55.30;;;;;;4924887;29;20126;-89
2023/02/08 04:52:33;;;;;;;32.50;24.23;;;1.10;55.30;;;;;;4934897;29;20032;-83
2023/02/08 04:54:59;;;;;;;31.92;24.58;;;1.10;55.90;;;;;;4931663;29;20666;-88
2023/02/08 04:57:25;;;;;;;30.10;23.30;;;1.10;55.40;;;;;;4934489;29;20055;-89
2023/02/08 04:59:51;;;;;;;34.85;24.52;;;1.10;55.40;;;;;;4918607;29;20633;-90
2023/02/08 05:02:17;;;;;;;34.30;24.17;;;1.10;55.90;;;;;;4929395;29;20062;-93
2023/02/08 05:04:43;;;;;;;30.73;23.65;;;1.10;55.40;;;;;;4931531;29;21065;-82
2023/02/08 05:07:09;;;;;;;31.45;23.83;;;1.10;55.50;;;;;;4930736;29;20058;-82
2023/02/08 05:09:35;;;;;;;29.17;22.40;;;1.10;55.50;;;;;;4929706;29;20126;-82
2023/02/08 05:12:01;;;;;;;31.33;22.63;;;1.10;55.50;;;;;;4930087;29;20777;-81
2023/02/08 05:14:26;;;;;;;27.55;21.63;;;1.10;55.50;;;;;;4931986;29;20028;-84
2023/02/08 05:16:52;;;;;;;30.10;22.42;;;1.00;55.30;;;;;;4932022;29;20518;-83
2023/02/08 05:19:18;;;;;;;30.77;22.52;;;1.00;55.40;;;;;;4912290;29;20395;-84
2023/02/08 05:21:44;;;;;;;34.05;22.45;;;1.00;55.40;;;;;;4922587;29;20075;-84
2023/02/08 05:24:11;;;;;;;29.02;22.35;;;1.00;55.40;;;;;;4930781;29;20551;-82
2023/02/08 05:26:38;;;;;;;33.40;21.83;;;1.00;55.50;;;;;;4929651;29;20188;-83
2023/02/08 05:29:04;;;;;;;29.65;22.83;;;1.00;55.50;;;;;;4929953;29;20054;-87
2023/02/08 05:31:30;;;;;;;29.38;21.38;;;1.00;55.50;;;;;;4941000;29;20031;-86
2023/02/08 05:33:56;;;;;;;27.80;21.45;;;1.00;55.50;;;;;;4931909;29;20044;-86
2023/02/08 05:36:22;;;;;;;30.63;21.65;;;0.90;55.40;;;;;;4925176;29;20059;-86
2023/02/08 05:38:49;;;;;;;34.50;22.63;;;0.90;55.40;;;;;;4928462;29;20102;-86
2023/02/08 05:41:16;;;;;;;27.80;22.45;;;0.90;55.40;;;;;;4913572;29;20248;-82
2023/02/08 05:43:42;;;;;;;30.02;22.90;;;0.90;55.40;;;;;;4926114;29;20480;-85
2023/02/08 05:46:08;;;;;;;27.13;20.83;;;0.90;55.40;;;;;;4924783;29;20071;-84
2023/02/08 05:48:34;;;;;;;28.40;21.38;;;0.90;55.40;;;;;;4926721;29;20058;-81
2023/02/08 05:51:00;;;;;;;30.88;22.10;;;0.90;55.40;;;;;;4927341;29;20038;-83
2023/02/08 05:53:26;;;;;;;28.05;21.20;;;0.90;55.30;;;;;;4926950;29;20036;-84
2023/02/08 05:55:52;;;;;;;28.95;20.95;;;0.90;55.30;;;;;;4929732;29;20043;-81
2023/02/08 05:58:18;;;;;;;29.63;22.23;;;0.90;55.30;;;;;;4925094;29;20024;-86
2023/02/08 06:00:44;;;;;;;33.72;22.05;;;0.90;55.30;;;;;;4919797;29;20039;-84
2023/02/08 06:03:10;;;;;;;29.70;21.23;;;0.80;55.10;;;;;;4926969;29;20052;-88
2023/02/08 06:05:38;;;;;;;31.00;22.02;;;0.80;55.10;;;;;;4929543;29;20043;-89
2023/02/08 06:08:04;;;;;;;26.50;21.20;;;0.80;55.10;;;;;;4936369;29;20375;-89
2023/02/08 06:10:30;;;;;;;32.53;22.08;;;0.80;55.10;;;;;;4930887;29;20091;-91
2023/02/08 06:12:56;;;;;;;30.25;22.05;;;0.80;55.20;;;;;;4935918;29;20036;-90
2023/02/08 06:15:24;;;;;;;30.25;21.90;;;0.70;55.00;;;;;;4934787;29;20487;-90
2023/02/08 06:17:50;;;;;;;31.48;21.90;;;0.70;55.00;;;;;;4945666;29;20029;-93
2023/02/08 06:20:16;;;;;;;30.33;21.88;;;0.70;54.90;;;;;;4944411;28;20538;-88
2023/02/08 06:22:42;;;;;;;25.77;21.77;;;0.70;55.00;;;;;;4936764;29;20526;-87
2023/02/08 06:25:08;;;;;;;34.45;21.67;;;0.70;54.90;;;;;;4939052;29;20039;-89
2023/02/08 06:27:34;;;;;;;26.33;21.83;;;0.70;55.00;;;;;;4940465;29;20055;-88
2023/02/08 06:30:00;;;;;;;30.00;21.67;;;0.60;54.80;;;;;;4927473;29;20050;-92
2023/02/08 06:32:26;;;;;;;30.55;20.23;;;0.60;54.80;;;;;;4937059;29;20048;-90
2023/02/08 06:34:53;;;;;;;29.20;20.98;;;0.60;54.80;;;;;;4929036;29;20124;-91
2023/02/08 06:37:19;;;;;;;25.92;20.98;;;0.60;54.70;;;;;;4932400;29;20035;-88
2023/02/08 06:39:45;;;;;;;38.38;22.77;;;0.50;54.60;;;;;;4931409;29;20051;-83
2023/02/08 06:42:11;;;;;;;27.60;21.40;;;0.50;54.60;;;;;;4930000;29;20036;-82
2023/02/08 06:44:37;;;;;;;29.50;21.63;;;0.60;55.00;;;;;;4934353;29;20130;-86
2023/02/08 06:47:03;;;;;;;33.47;24.05;;;0.60;55.80;;;;;;4936786;29;20054;-84
2023/02/08 06:49:29;;;;;;;28.48;21.55;;;0.70;55.40;;;;;;4934127;29;20031;-88
2023/02/08 06:51:55;;;;;;;27.65;20.17;;;0.80;55.40;;;;;;4933892;29;20040;-85
2023/02/08 06:54:21;;;;;;;29.92;20.75;;;0.90;55.40;;;;;;4927741;29;20083;-81
2023/02/08 06:56:47;;;;;;;31.08;20.02;;;0.90;55.30;;;;;;4920289;29;20817;-82
2023/02/08 06:59:13;;;;;;;34.10;25.02;;;0.90;55.30;;;;;;4923917;29;20032;-82
2023/02/08 07:01:39;;;;;;;31.08;23.65;;;1.00;55.80;;;;;;4921627;29;20951;-82
2023/02/08 07:04:05;;;;;;;38.53;25.30;;;1.00;56.00;;;;;;4928410;29;20677;-83
2023/02/08 07:06:31;;;;;;;37.58;23.08;;;1.20;56.40;;;;;;4929957;29;20032;-83
2023/02/08 07:08:56;;;;;;;31.75;22.33;;;1.30;56.50;;;;;;4927951;29;20503;-86
2023/02/08 07:11:22;;;;;;;33.75;24.52;;;1.40;56.60;;;;;;4932292;29;20096;-85
2023/02/08 07:13:50;;;;;;;31.92;23.55;;;1.60;57.00;;;;;;4913405;29;20520;-85
2023/02/08 07:16:16;;;;;;;35.28;24.10;;;1.80;57.20;;;;;;4928035;29;20091;-86
2023/02/08 07:18:43;;;;;;;32.45;23.73;;;1.90;57.30;;;;;;4930029;29;20028;-81
2023/02/08 07:21:10;;;;;;;34.83;25.90;;;2.00;57.40;;;;;;4929430;29;20040;-84
2023/02/08 07:23:41;;;;;;;36.20;24.38;;;2.20;57.70;;;;;;4927544;29;20040;-83
2023/02/08 07:26:10;;;;;;;32.20;24.58;;;2.30;57.80;;;;;;4920633;29;20035;-86
2023/02/08 07:28:37;;;;;;;32.67;24.50;;;2.40;57.90;;;;;;4926936;29;20120;-82
2023/02/08 07:31:08;;;;;;;29.95;22.25;;;2.50;58.30;;;;;;4918613;29;20079;-88
2023/02/08 07:33:34;;;;;;;34.67;23.98;;;2.70;58.40;;;;;;4925129;29;20032;-86
2023/02/08 07:36:00;;;;;;;32.00;23.13;;;2.80;58.60;;;;;;4916842;29;20067;-88
2023/02/08 07:38:26;;;;;;;32.20;23.95;;;2.80;58.60;;;;;;4914594;29;20039;-87
2023/02/08 07:40:59;;;;;;;33.25;22.60;;;2.90;58.80;;;;;;4909359;29;20631;-86
2023/02/08 07:43:25;;;;;;;28.15;21.45;;;3.00;59.00;;;;;;4926623;29;20535;-86
2023/02/08 07:45:57;;;;;;;27.30;21.40;;;3.10;59.20;;;;;;4915350;29;20036;-86
2023/02/08 07:48:22;;;;;;;28.55;19.92;;;3.20;59.30;;;;;;4925938;29;20358;-86
2023/02/08 07:50:48;;;;;;;29.52;19.80;;;3.30;59.40;;;;;;4932552;29;20050;-85
2023/02/08 07:53:15;;;;;;;31.92;19.90;;;3.40;59.60;;;;;;4932247;29;20042;-90
2023/02/08 07:55:44;;;;;;;26.45;20.15;;;3.40;59.60;;;;;;4928720;29;20051;-85
2023/02/08 07:58:10;;;;;;;28.15;18.50;;;3.50;59.80;;;;;;4933515;29;20059;-89
2023/02/08 08:00:36;;;;;;;25.88;18.20;;;3.60;60.00;;;;;;4923658;29;20075;-80
2023/02/08 08:03:02;;;;;;;23.75;18.20;;;3.70;60.10;;;;;;4929604;29;20036;-84
2023/02/08 08:05:28;;;;;;;27.27;17.92;;;3.80;60.30;;;;;;4933876;29;20053;-83
2023/02/08 08:07:54;;;;;;;25.73;17.73;;;3.90;60.40;;;;;;4941871;28;20034;-81
2023/02/08 08:10:20;;;;;;;25.65;17.08;;;4.00;60.50;;;;;;4939329;28;20051;-80
2023/02/08 08:12:46;;;;;;;21.35;16.48;;;4.00;60.40;;;;;;4926265;29;20051;-82
2023/02/08 08:15:12;;;;;;;26.58;17.27;;;4.20;61.20;;;;;;4931715;29;20036;-87
2023/02/08 08:17:40;;;;;;;27.30;16.50;;;4.20;60.70;;;;;;4933485;29;20070;-83
2023/02/08 08:20:10;;;;;;;22.77;16.50;;;4.30;60.70;;;;;;4932865;29;20087;-84
2023/02/08 08:22:37;;;;;;;25.95;16.00;;;4.30;60.70;;;;;;4929388;29;20043;-85
2023/02/08 08:25:03;;;;;;;24.75;15.25;;;4.40;60.70;;;;;;4937586;29;20035;-87
2023/02/08 08:27:29;;;;;;;22.45;16.02;;;4.50;60.90;;;;;;4931612;29;20039;-88
2023/02/08 08:29:55;;;;;;;21.75;16.50;;;4.50;60.80;;;;;;4932897;29;20047;-89
2023/02/08 08:32:20;;;;;;;22.15;15.35;;;4.60;61.00;;;;;;4931131;28;20070;-86
2023/02/08 08:34:46;;;;;;;21.73;14.65;;;4.60;60.80;;;;;;4942059;29;20478;-87
2023/02/08 08:37:12;;;;;;;18.23;14.52;;;4.60;60.70;;;;;;4928500;29;20047;-86
2023/02/08 08:39:38;;;;;;;26.13;15.98;;;4.50;60.50;;;;;;4932471;29;20071;-92
2023/02/08 08:42:04;;;;;;;24.90;16.35;;;4.40;60.40;;;;;;4935100;29;20051;-84
2023/02/08 08:44:30;;;;;;;20.90;15.25;;;4.30;60.30;;;;;;4936766;29;20387;-87
2023/02/08 08:46:59;;;;;;;22.15;15.65;;;4.20;60.30;;;;;;4934819;29;20042;-86
2023/02/08 08:49:27;;;;;;;23.02;16.67;;;4.10;60.30;;;;;;4933644;29;20099;-85
2023/02/08 08:51:53;;;;;;;24.92;16.83;;;4.00;60.30;;;;;;4939858;29;20090;-85
2023/02/08 08:54:20;;;;;;;23.13;16.38;;;3.90;60.20;;;;;;4939914;28;20099;-87
2023/02/08 08:56:46;;;;;;;23.10;16.08;;;3.80;60.10;;;;;;4929477;29;20043;-88
2023/02/08 08:59:13;;;;;;;23.95;17.20;;;3.70;60.10;;;;;;4930654;29;20031;-87
2023/02/08 09:01:41;;;;;;;29.55;18.10;;;3.60;60.00;;;;;;4932261;29;20032;-85
2023/02/08 09:04:07;;;;;;;25.63;16.92;;;3.60;60.10;;;;;;4935579;29;20404;-90
2023/02/08 09:06:34;;;;;;;28.30;17.65;;;3.50;60.00;;;;;;4931685;29;20400;-90
2023/02/08 09:09:00;;;;;;;23.35;16.60;;;3.40;59.80;;;;;;4929910;29;20119;-83
2023/02/08 09:11:27;;;;;;;24.13;17.77;;;3.40;59.80;;;;;;4929206;29;20028;-87
2023/02/08 09:13:55;;;;;;;25.25;17.65;;;3.40;59.80;;;;;;4931280;29;20032;-84
2023/02/08 09:16:22;;;;;;;25.42;16.17;;;3.30;59.60;;;;;;4931182;29;20134;-86
2023/02/08 09:18:48;;;;;;;22.38;16.88;;;3.30;59.60;;;;;;4932175;29;20063;-85
2023/02/08 09:21:19;;;;;;;27.75;18.45;;;3.30;59.70;;;;;;4931383;29;20059;-84
2023/02/08 09:23:49;;;;;;;27.15;16.90;;;3.20;59.40;;;;;;4927315;29;20130;-84
2023/02/08 09:26:16;;;;;;;25.08;17.08;;;3.20;59.50;;;;;;4929273;29;20150;-89
2023/02/08 09:28:42;;;;;;;27.23;18.13;;;3.20;59.50;;;;;;4912541;29;20040;-83
2023/02/08 09:31:17;;;;;;;21.20;16.23;;;3.20;59.40;;;;;;4930490;29;20051;-85
2023/02/08 09:33:46;;;;;;;23.38;17.20;;;3.20;59.40;;;;;;4930323;29;20085;-86
2023/02/08 09:36:13;;;;;;;24.40;18.10;;;3.20;59.40;;;;;;4930024;29;20110;-90
2023/02/08 09:38:43;;;;;;;27.25;18.45;;;3.20;59.40;;;;;;4927757;29;20540;-86
2023/02/08 09:41:24;;;;;;;26.52;18.38;;;3.10;59.70;;;;;;4928421;29;20036;-85
2023/02/08 09:44:28;;;;;;;28.95;17.80;;;3.10;59.20;;;;;;4928192;29;20115;-84
2023/02/08 09:47:12;;;;;;;;;;;3.20;59.40;;;;;;4929708;29;20047;-86
2023/02/08 09:49:55;;;;;;;23.95;17.70;;;3.20;59.40;;;;;;4931149;29;19919;-87
2023/02/08 09:52:28;;;;;;;27.75;17.30;;;3.30;59.40;;;;;;4930793;29;20116;-86
2023/02/08 09:55:00;;;;;;;18.52;13.65;;;3.30;59.30;;;;;;4930032;29;20155;-88
2023/02/08 09:57:30;;;;;;;27.40;17.63;;;3.30;59.30;;;;;;4931211;29;20523;-88
2023/02/08 10:00:01;;;;;;;28.42;19.25;;;3.30;59.30;;;;;;4933082;29;20123;-90
2023/02/08 10:02:33;;;;;;;25.00;17.42;;;3.30;59.30;;;;;;4945655;28;20046;-88
2023/02/08 10:05:09;;;;;;;24.23;17.67;;;3.40;59.50;;;;;;4939011;28;20092;-88
2023/02/08 10:07:35;;;;;;;23.23;17.35;;;3.40;59.40;;;;;;4934439;29;20027;-77
2023/02/08 10:10:05;;;;;;;23.55;17.40;;;3.40;59.40;;;;;;4929787;29;20052;-86
2023/02/08 10:12:45;;;;;;;23.88;17.67;;;3.40;59.30;;;;;;4932492;29;20031;-93
2023/02/08 10:15:40;;;;;;;26.15;17.48;;;3.40;59.30;;;;;;4930800;29;20035;-90
2023/02/08 10:18:37;;;;;;;24.88;17.27;;;3.40;59.20;;;;;;4914301;29;20141;-78
2023/02/08 10:21:28;;;;;;;23.30;16.23;;;3.50;59.40;;;;;;4919823;29;20076;-76
2023/02/08 10:24:09;;;;;;;22.77;16.98;;;3.50;59.40;;;;;;4922463;29;20078;-83
2023/02/08 10:26:51;;;;;;;26.05;18.27;;;3.50;59.30;;;;;;4927901;29;20071;-82
2023/02/08 10:29:53;;;;;;;20.13;12.93;;;3.60;59.50;;;;;;4924616;29;20078;-76
2023/02/08 10:32:51;;;;;;;24.98;16.20;;;3.60;59.50;;;;;;4931208;29;20089;-77
2023/02/08 10:35:36;;;;;;;25.88;18.00;;;3.60;59.50;;;;;;4924344;29;20047;-78
2023/02/08 10:38:32;;;;;;;26.75;18.15;;;3.70;59.80;;;;;;4919442;29;20376;-77
2023/02/08 10:41:00;;;;;;;30.33;16.83;;;3.80;60.30;;;;;;4915370;29;20403;-77
2023/02/08 10:43:34;;;;;;;21.27;16.45;;;4.00;60.40;;;;;;4924336;29;20050;-80
2023/02/08 10:46:34;;;;;;;21.67;14.25;;;4.10;60.40;;;;;;4936645;29;20427;-81
2023/02/08 10:49:28;;;;;;;21.35;15.80;;;4.20;60.50;;;;;;4916224;29;20038;-80
2023/02/08 10:51:54;;;;;;;21.98;15.32;;;4.20;60.40;;;;;;4921969;29;20031;-79
2023/02/08 10:54:20;;;;;;;22.70;15.70;;;4.30;61.00;;;;;;4917608;29;20071;-77
2023/02/08 10:56:56;;;;;;;20.63;14.15;;;4.30;60.40;;;;;;4926819;29;20549;-78
2023/02/08 10:59:44;;;;;;;19.05;13.95;;;4.30;60.40;;;;;;4918953;29;20100;-79
2023/02/08 11:02:27;;;;;;;22.33;15.23;;;4.40;60.60;;;;;;4936091;29;20049;-78
2023/02/08 11:05:00;;;;;;;21.40;14.23;;;4.40;60.60;;;;;;4913080;29;20110;-79
2023/02/08 11:07:26;;;;;;;19.42;13.38;;;4.40;60.50;;;;;;4913452;29;20444;-79
2023/02/08 11:09:52;;;;;;;18.55;13.55;;;4.50;60.70;;;;;;4931117;29;20038;-78
2023/02/08 11:12:21;;;;;;;20.65;15.02;;;4.50;60.70;;;;;;4928685;29;20047;-78
2023/02/08 11:14:50;;;;;;;18.83;14.50;;;4.50;60.70;;;;;;4932641;28;20428;-78
2023/02/08 11:17:34;;;;;;;17.25;12.73;;;4.50;60.70;;;;;;4927973;29;20547;-80
2023/02/08 11:20:00;;;;;;;17.77;14.40;;;4.50;60.70;;;;;;4926889;28;20131;-78
2023/02/08 11:22:33;;;;;;;19.40;13.90;;;4.60;60.90;;;;;;4927979;29;20035;-77
2023/02/08 11:25:02;;;;;;;21.02;14.35;;;4.60;60.80;;;;;;4916645;29;20046;-81
2023/02/08 11:27:27;;;;;;;17.33;13.40;;;4.60;60.80;;;;;;4908711;29;20027;-80
2023/02/08 11:30:14;;;;;;;17.08;13.00;;;4.70;61.00;;;;;;4924662;29;20055;-82
2023/02/08 11:32:42;;;;;;;20.65;14.23;;;4.70;61.00;;;;;;4917400;29;20436;-80
2023/02/08 11:35:21;;;;;;;15.88;13.13;;;4.80;61.10;;;;;;4930246;29;20035;-79
2023/02/08 11:37:58;;;;;;;18.25;12.85;;;4.80;61.00;;;;;;4915656;29;20139;-78
2023/02/08 11:40:33;;;;;;;22.38;14.27;;;4.80;61.00;;;;;;4925715;29;20054;-79
2023/02/08 11:42:59;;;;;;;18.95;13.27;;;4.90;61.20;;;;;;4934820;29;20043;-82
2023/02/08 11:45:28;;;;;;;18.42;12.63;;;4.90;61.10;;;;;;4930759;29;20041;-84
2023/02/08 11:47:55;;;;;;;18.23;13.23;;;5.00;61.30;;;;;;4925164;29;20040;-81
2023/02/08 11:50:34;;;;;;;19.83;12.52;;;5.00;61.20;;;;;;4935882;29;20061;-82
2023/02/08 11:53:20;;;;;;;24.40;14.88;;;5.00;61.30;;;;;;4926557;29;20036;-80
2023/02/08 11:56:20;;;;;;;21.40;13.27;;;5.20;61.70;;;;;;4922901;29;20043;-81
2023/02/08 11:58:56;;;;;;;19.05;13.00;;;5.30;61.90;;;;;;4917416;29;20068;-81
2023/02/08 12:01:36;;;;;;;22.58;13.45;;;5.40;61.90;;;;;;4923717;29;20074;-80
2023/02/08 12:04:05;;;;;;;16.95;12.02;;;5.40;61.80;;;;;;4917975;29;20534;-80
2023/02/08 12:07:12;;;;;;;18.55;12.88;;;5.50;61.90;;;;;;4919269;29;20027;-79
2023/02/08 12:09:41;;;;;;;19.92;12.98;;;5.60;62.10;;;;;;4930212;29;20126;-78
2023/02/08 12:12:22;;;;;;;19.50;12.35;;;5.60;61.90;;;;;;4917600;29;20489;-78
2023/02/08 12:14:57;;;;;;;17.90;11.88;;;5.60;62.00;;;;;;4923406;29;20035;-81
2023/02/08 12:17:52;;;;;;;19.08;15.15;;;5.70;62.10;;;;;;4928092;29;20440;-81
2023/02/08 12:20:36;;;;;;;20.85;13.60;;;5.80;62.40;;;;;;4915735;29;20065;-79
2023/02/08 12:23:38;;;;;;;15.50;11.30;;;5.80;62.30;;;;;;4918780;29;20452;-91
2023/02/08 12:26:18;;;;;;;13.57;11.25;;;5.90;62.50;;;;;;4911167;29;20522;-83
2023/02/08 12:28:55;;;;;;;17.50;11.93;;;6.00;62.50;;;;;;4923375;29;20102;-82
2023/02/08 12:31:39;;;;;;;21.20;12.88;;;6.00;62.50;;;;;;4927842;29;20035;-83
2023/02/08 12:34:19;;;;;;;17.83;12.07;;;6.10;62.70;;;;;;4923457;29;20039;-78
2023/02/08 12:43:47;;;;;;;20.58;13.80;;;6.30;62.90;;;;;;4927625;29;20055;-78
2023/02/08 12:46:52;;;;;;;17.17;11.82;;;6.40;63.10;;;;;;4931242;29;20441;-78
2023/02/08 12:49:17;;;;;;;20.30;14.07;;;6.50;63.10;;;;;;4894143;29;20408;-75
2023/02/08 12:52:14;;;;;;;17.77;12.75;;;6.60;63.20;;;;;;4932390;29;20023;-76
2023/02/08 12:54:58;;;;;;;20.42;13.00;;;6.60;63.20;;;;;;4931394;29;20447;-78
2023/02/08 12:57:27;;;;;;;15.13;10.73;;;6.70;63.30;;;;;;4938993;29;20039;-78
2023/02/08 13:00:06;;;;;;;13.40;10.27;;;6.80;63.40;;;;;;4934338;29;20078;-80
2023/02/08 13:02:53;;;;;;;12.38;9.10;;;6.90;63.50;;;;;;4934530;29;20114;-80
2023/02/08 13:05:22;;;;;;;14.75;9.70;;;6.90;63.40;;;;;;4917921;29;20040;-78
2023/02/08 13:07:56;;;;;;;16.48;9.45;;;7.00;63.50;;;;;;4928591;29;20067;-81
2023/02/08 13:10:32;;;;;;;13.77;9.80;;;7.00;63.30;;;;;;4921346;29;20028;-80